Time;durP1;ratioP1;P1;durP2;ratioP2;P2;SDS_P1;SDS_P2;PMS_P1;PMS_P2;Temp;Humidity;BMP_temperature;BMP_pressure;BME280_temperature;BME280_humidity;BME280_pressure;Samples;Min_cycle;Max_cycle;Signal;HPM_P1;HPM_P2
2021/12/08 00:00:44;;;;;;;21.37;9.30;;;;;;;-5.25;100.00;96984.72;5069337;28;20385;-64
2021/12/08 00:03:15;;;;;;;22.07;8.97;;;;;;;-5.25;100.00;96996.66;5069668;28;20068;-65
2021/12/08 00:05:45;;;;;;;19.37;8.43;;;;;;;-5.30;100.00;97008.72;5069615;28;20377;-65
2021/12/08 00:08:15;;;;;;;21.87;8.90;;;;;;;-5.15;100.00;97008.47;5069495;28;20078;-65
2021/12/08 00:13:02;;;;;;;17.93;9.43;;;;;;;-5.20;100.00;97026.44;5069472;28;20041;-64
2021/12/08 00:13:40;;;;;;;19.63;8.60;;;;;;;-5.17;100.00;97015.31;5068672;28;20478;-65
2021/12/08 00:16:09;;;;;;;20.63;9.07;;;;;;;-5.19;100.00;97019.63;5068624;28;20049;-65
2021/12/08 00:18:43;;;;;;;20.00;8.43;;;;;;;-5.11;100.00;97028.84;5067688;28;20041;-65
2021/12/08 00:21:12;;;;;;;20.10;9.30;;;;;;;-5.13;100.00;97035.72;5068206;28;20102;-64
2021/12/08 00:23:39;;;;;;;19.83;9.47;;;;;;;-5.09;100.00;97038.25;5068136;28;20051;-65
2021/12/08 00:26:07;;;;;;;15.17;8.17;;;;;;;-5.26;100.00;97038.50;5068250;28;20119;-65
2021/12/08 00:28:35;;;;;;;23.60;8.73;;;;;;;-5.21;100.00;97041.84;5066047;28;20044;-65
2021/12/08 00:31:05;;;;;;;22.33;8.60;;;;;;;-5.26;100.00;97034.22;5067143;28;20437;-65
2021/12/08 00:33:32;;;;;;;17.97;8.13;;;;;;;-5.30;100.00;97045.38;5067623;28;20493;-65
2021/12/08 00:36:02;;;;;;;22.50;8.97;;;;;;;-5.27;100.00;97039.38;5070182;28;20055;-65
2021/12/08 00:38:31;;;;;;;25.50;9.27;;;;;;;-5.24;100.00;97047.00;5068562;28;20344;-65
2021/12/08 00:40:59;;;;;;;22.37;8.33;;;;;;;-5.19;100.00;97046.06;5068580;28;20132;-64
2021/12/08 00:43:26;;;;;;;23.03;9.73;;;;;;;-5.16;100.00;97053.69;5068581;28;20029;-64
2021/12/08 00:45:54;;;;;;;20.97;9.30;;;;;;;-5.34;100.00;97063.38;5068461;28;20135;-64
2021/12/08 00:48:22;;;;;;;24.80;8.67;;;;;;;-5.27;100.00;97062.44;5066667;28;20501;-64
2021/12/08 00:50:50;;;;;;;23.87;8.43;;;;;;;-5.21;100.00;97057.19;5067709;28;20501;-64
2021/12/08 00:53:18;;;;;;;18.73;7.90;;;;;;;-5.20;100.00;97066.56;5068236;28;20268;-65
2021/12/08 00:55:47;;;;;;;19.97;9.50;;;;;;;-5.31;100.00;97058.19;5072204;28;20048;-65
2021/12/08 00:58:14;;;;;;;21.67;10.53;;;;;;;-5.25;100.00;97058.97;5071463;28;20049;-65
2021/12/08 01:00:45;;;;;;;21.03;8.50;;;;;;;-5.22;100.00;97064.00;5071843;28;20072;-65
2021/12/08 01:03:13;;;;;;;19.33;8.23;;;;;;;-5.28;100.00;97051.34;5071725;28;20094;-65
2021/12/08 01:05:44;;;;;;;21.50;9.57;;;;;;;-5.30;100.00;97052.22;5072039;28;20290;-65
2021/12/08 01:08:11;;;;;;;22.70;9.53;;;;;;;-5.33;100.00;97042.03;5072188;28;20132;-65
2021/12/08 01:10:42;;;;;;;24.67;8.93;;;;;;;-5.34;100.00;97033.50;5072481;28;20047;-65
2021/12/08 01:13:12;;;;;;;28.43;11.10;;;;;;;-5.25;100.00;97033.38;5072162;28;20057;-65
2021/12/08 01:15:42;;;;;;;18.27;8.33;;;;;;;-5.28;100.00;97048.78;5072436;28;20044;-65
2021/12/08 01:18:09;;;;;;;29.73;11.07;;;;;;;-5.26;100.00;97046.19;5072049;28;20048;-65
2021/12/08 01:20:37;;;;;;;18.17;8.67;;;;;;;-5.27;100.00;97044.50;5071336;28;20122;-65
2021/12/08 01:23:04;;;;;;;22.93;9.77;;;;;;;-5.29;100.00;97038.56;5071552;28;20055;-65
2021/12/08 01:25:31;;;;;;;24.67;10.17;;;;;;;-5.24;100.00;97045.28;5071457;28;20051;-65
2021/12/08 01:27:58;;;;;;;19.67;8.57;;;;;;;-5.32;100.00;97036.88;5071128;28;20052;-65
2021/12/08 01:30:27;;;;;;;17.60;8.10;;;;;;;-5.33;100.00;97040.31;5071138;28;20042;-65
2021/12/08 01:32:55;;;;;;;21.23;8.10;;;;;;;-5.30;100.00;97039.44;5069834;28;20810;-65
2021/12/08 01:35:23;;;;;;;21.57;10.87;;;;;;;-5.31;100.00;97041.13;5069919;28;20548;-65
2021/12/08 01:37:50;;;;;;;19.80;8.70;;;;;;;-5.26;100.00;97034.22;5070586;28;20039;-65
2021/12/08 01:40:18;;;;;;;24.50;9.53;;;;;;;-5.27;100.00;97022.28;5070562;28;20065;-64
2021/12/08 01:42:49;;;;;;;20.90;10.67;;;;;;;-5.31;100.00;97022.34;5070278;28;20072;-65
2021/12/08 01:48:05;;;;;;;26.90;9.33;;;;;;;-5.32;100.00;97013.84;5072078;28;20554;-63
2021/12/08 01:50:32;;;;;;;17.47;8.10;;;;;;;-5.40;100.00;97010.56;5072677;28;20037;-62
2021/12/08 01:52:59;;;;;;;25.70;10.07;;;;;;;-5.31;100.00;97014.69;5071227;28;20080;-62
2021/12/08 01:55:29;;;;;;;20.90;10.03;;;;;;;-5.32;100.00;97006.16;5071013;28;20167;-62
2021/12/08 01:57:59;;;;;;;29.30;10.07;;;;;;;-5.25;100.00;97019.72;5070583;28;20036;-62
2021/12/08 02:00:30;;;;;;;20.83;9.17;;;;;;;-5.33;100.00;97011.31;5071527;28;20071;-65
2021/12/08 02:02:57;;;;;;;17.27;9.33;;;;;;;-5.37;100.00;97010.50;5070857;28;20039;-65
2021/12/08 02:05:25;;;;;;;21.47;7.77;;;;;;;-5.43;100.00;97012.31;5068904;28;20071;-65
2021/12/08 02:07:53;;;;;;;21.07;9.07;;;;;;;-5.40;100.00;97005.44;5068939;28;20294;-65
2021/12/08 02:10:22;;;;;;;16.57;7.60;;;;;;;-5.48;100.00;96994.47;5070177;28;20510;-64
2021/12/08 02:12:49;;;;;;;21.23;6.80;;;;;;;-5.50;100.00;97000.47;5070271;28;20409;-65
2021/12/08 02:15:17;;;;;;;17.70;8.03;;;;;;;-5.44;100.00;97006.38;5069780;28;20098;-65
2021/12/08 02:17:45;;;;;;;15.03;7.27;;;;;;;-5.47;100.00;96996.19;5071023;28;20797;-65
2021/12/08 02:20:14;;;;;;;15.00;6.33;;;;;;;-5.49;100.00;97002.19;5070539;28;20420;-64
2021/12/08 02:22:43;;;;;;;20.27;8.47;;;;;;;-5.47;100.00;96991.06;5071327;28;20051;-65
2021/12/08 02:25:15;;;;;;;16.27;7.23;;;;;;;-5.45;100.00;96988.47;5071490;28;20482;-65
2021/12/08 02:27:42;;;;;;;22.70;8.37;;;;;;;-5.48;100.00;96989.34;5071279;28;20098;-65
2021/12/08 02:30:17;;;;;;;23.43;8.63;;;;;;;-5.45;100.00;96986.75;5070686;28;20057;-65
2021/12/08 02:46:51;;;;;;;18.00;8.10;;;;;;;-5.50;100.00;97001.34;5071153;28;20036;-65
2021/12/08 02:49:20;;;;;;;26.57;9.50;;;;;;;-5.52;100.00;97005.63;5071049;28;20072;-65
2021/12/08 02:51:49;;;;;;;19.00;8.30;;;;;;;-5.55;100.00;96995.47;5072010;28;20127;-65
2021/12/08 02:54:18;;;;;;;18.27;8.40;;;;;;;-5.51;100.00;96999.66;5071723;28;20036;-65
2021/12/08 02:56:45;;;;;;;20.70;7.43;;;;;;;-5.55;100.00;96992.91;5070807;28;20287;-65
2021/12/08 02:59:12;;;;;;;20.50;7.97;;;;;;;-5.56;100.00;96991.19;5071607;28;20047;-65
2021/12/08 03:01:40;;;;;;;16.70;8.30;;;;;;;-5.59;100.00;96987.84;5070988;28;20821;-65
2021/12/08 03:04:08;;;;;;;15.93;7.53;;;;;;;-5.63;100.00;96993.88;5071323;28;20086;-65
2021/12/08 03:06:36;;;;;;;22.83;7.60;;;;;;;-5.55;100.00;96998.00;5071455;28;20696;-65
2021/12/08 03:09:05;;;;;;;23.53;8.97;;;;;;;-5.59;100.00;96991.22;5072633;28;20052;-65
2021/12/08 03:11:35;;;;;;;19.10;8.00;;;;;;;-5.61;100.00;96992.13;5071851;28;20044;-64
2021/12/08 03:14:07;;;;;;;22.60;7.83;;;;;;;-5.61;100.00;96997.25;5071513;28;20875;-65
2021/12/08 03:16:35;;;;;;;17.33;8.37;;;;;;;-5.58;100.00;96987.81;5071155;28;20098;-65
2021/12/08 03:19:02;;;;;;;16.57;7.13;;;;;;;-5.57;100.00;96981.81;5071365;28;20375;-63
2021/12/08 03:21:31;;;;;;;25.63;9.50;;;;;;;-5.62;100.00;96981.06;5070743;28;20056;-63
2021/12/08 03:24:21;;;;;;;20.43;8.43;;;;;;;-5.66;100.00;96989.66;5072012;28;20322;-69
2021/12/08 03:27:06;;;;;;;25.97;9.13;;;;;;;-5.62;100.00;96978.50;5071645;28;20055;-69
2021/12/08 03:29:42;;;;;;;14.03;6.17;;;;;;;-5.59;100.00;96975.03;5070739;28;20110;-65
2021/12/08 03:32:13;;;;;;;20.53;8.10;;;;;;;-5.66;100.00;96976.88;5069947;28;20041;-65
2021/12/08 03:34:50;;;;;;;20.27;7.90;;;;;;;-5.67;100.00;96989.69;5070195;28;20294;-65
2021/12/08 03:37:22;;;;;;;20.60;8.07;;;;;;;-5.63;100.00;96989.59;5070130;28;20461;-65
2021/12/08 03:39:50;;;;;;;16.80;7.97;;;;;;;-5.61;100.00;96992.97;5070190;28;20315;-65
2021/12/08 03:42:20;;;;;;;21.67;9.50;;;;;;;-5.67;100.00;97000.72;5070115;28;20562;-65
2021/12/08 03:44:48;;;;;;;19.10;7.80;;;;;;;-5.65;100.00;96999.00;5069832;28;20112;-64
2021/12/08 03:47:18;;;;;;;19.13;8.47;;;;;;;-5.67;100.00;97005.03;5069546;28;20047;-64
2021/12/08 03:49:47;;;;;;;17.43;8.37;;;;;;;-5.64;100.00;97008.38;5069769;28;20041;-64
2021/12/08 03:52:14;;;;;;;24.90;7.87;;;;;;;-5.60;100.00;97012.56;5069676;28;20369;-64
2021/12/08 03:54:41;;;;;;;24.17;9.50;;;;;;;-5.64;100.00;97008.38;5069834;28;20285;-64
2021/12/08 03:57:08;;;;;;;23.03;9.30;;;;;;;-5.59;100.00;97010.88;5069748;28;20286;-65
2021/12/08 03:59:39;;;;;;;22.73;9.23;;;;;;;-5.61;100.00;97010.03;5069415;28;20127;-64
2021/12/08 04:02:06;;;;;;;19.23;8.23;;;;;;;-5.52;100.00;97012.47;5069668;28;20057;-65
2021/12/08 04:04:42;;;;;;;25.03;11.43;;;;;;;-5.59;100.00;97011.69;5068627;28;20139;-65
2021/12/08 04:07:11;;;;;;;24.47;8.97;;;;;;;-5.59;100.00;97011.69;5069925;28;20157;-64
2021/12/08 04:09:40;;;;;;;26.87;10.30;;;;;;;-5.54;100.00;97003.97;5068823;28;20702;-64
2021/12/08 04:12:08;;;;;;;19.67;7.63;;;;;;;-5.57;100.00;96998.88;5069672;28;20090;-64
2021/12/08 04:14:39;;;;;;;21.10;9.53;;;;;;;-5.56;100.00;96995.47;5068912;28;20098;-65
2021/12/08 04:17:10;;;;;;;20.43;7.83;;;;;;;-5.58;100.00;96990.38;5069497;28;20044;-65
2021/12/08 04:19:40;;;;;;;20.03;8.97;;;;;;;-5.64;100.00;96989.59;5069214;28;20040;-65
2021/12/08 04:22:10;;;;;;;23.27;11.10;;;;;;;-5.62;100.00;96993.84;5069488;28;20310;-65
2021/12/08 04:24:38;;;;;;;21.77;9.43;;;;;;;-5.61;100.00;97003.22;5069306;28;20667;-65
2021/12/08 04:27:09;;;;;;;25.43;9.40;;;;;;;-5.62;100.00;97004.09;5070660;28;20047;-65
2021/12/08 04:29:40;;;;;;;25.60;10.33;;;;;;;-5.68;100.00;97016.09;5068651;28;20692;-65
2021/12/08 04:32:13;;;;;;;19.97;9.70;;;;;;;-5.66;100.00;97015.25;5068385;28;20386;-65
2021/12/08 04:34:41;;;;;;;26.52;10.52;;;;;;;-5.60;100.00;97009.19;5069127;28;20109;-65
2021/12/08 04:37:18;;;;;;;20.73;8.83;;;;;;;-5.60;100.00;97020.25;5069478;28;20036;-65
2021/12/08 04:39:56;;;;;;;25.17;9.80;;;;;;;-5.62;100.00;97027.13;5070456;28;20289;-65
2021/12/08 04:42:36;;;;;;;25.13;10.80;;;;;;;-5.64;100.00;97035.66;5069175;28;20456;-65
2021/12/08 04:45:11;;;;;;;30.37;11.17;;;;;;;-5.68;100.00;97034.00;5069092;28;20519;-65
2021/12/08 04:47:52;;;;;;;25.00;8.83;;;;;;;-5.62;100.00;97032.22;5068942;28;20476;-64
2021/12/08 04:50:41;;;;;;;23.00;10.83;;;;;;;-5.63;100.00;97039.94;5067674;28;20131;-64
2021/12/08 04:53:26;;;;;;;19.67;9.30;;;;;;;-5.64;100.00;97023.72;5068606;28;20040;-64
2021/12/08 05:01:44;;;;;;;29.10;11.70;;;;;;;-5.64;100.00;97017.75;5069053;28;20068;-64
2021/12/08 05:07:14;;;;;;;28.87;10.53;;;;;;;-5.57;100.00;97015.09;5068974;28;20789;-64
2021/12/08 05:09:42;;;;;;;26.87;10.53;;;;;;;-5.58;100.00;97010.84;5068934;28;20359;-65
2021/12/08 05:12:14;;;;;;;28.20;10.90;;;;;;;-5.51;100.00;97007.34;5068932;28;20655;-65
2021/12/08 05:14:45;;;;;;;28.60;10.30;;;;;;;-5.56;100.00;97001.41;5067678;28;20348;-65
2021/12/08 05:17:21;;;;;;;22.80;10.30;;;;;;;-5.59;100.00;97000.63;5068778;28;20064;-66
2021/12/08 05:19:53;;;;;;;32.47;11.50;;;;;;;-5.60;100.00;97004.91;5068915;28;20295;-65
2021/12/08 05:22:27;;;;;;;23.20;8.67;;;;;;;-5.61;100.00;97010.03;5070548;28;20041;-65
2021/12/08 05:24:56;;;;;;;20.93;9.00;;;;;;;-5.58;100.00;97008.28;5069082;28;20048;-65
2021/12/08 05:27:26;;;;;;;33.30;12.30;;;;;;;-5.58;100.00;97018.53;5068701;28;20076;-65
2021/12/08 05:29:57;;;;;;;28.33;10.87;;;;;;;-5.67;100.00;97023.75;5068003;28;20140;-65
2021/12/08 05:32:25;;;;;;;20.00;7.03;;;;;;;-5.63;100.00;97009.22;5067773;28;20068;-66
2021/12/08 05:34:53;;;;;;;31.47;11.27;;;;;;;-5.74;100.00;97017.03;5068642;28;20037;-65
2021/12/08 05:37:22;;;;;;;23.47;10.10;;;;;;;-5.73;100.00;97008.53;5069497;28;20056;-66
2021/12/08 05:39:49;;;;;;;27.73;10.57;;;;;;;-5.72;100.00;97015.31;5068750;28;20317;-65
2021/12/08 05:42:19;;;;;;;26.00;11.33;;;;;;;-5.73;100.00;97018.75;5071737;28;20404;-65
2021/12/08 05:44:47;;;;;;;30.60;13.40;;;;;;;-5.79;100.00;97025.63;5072076;28;20338;-65
2021/12/08 05:47:18;;;;;;;27.20;10.77;;;;;;;-5.63;100.00;97020.28;5072074;28;20324;-65
2021/12/08 05:49:47;;;;;;;24.83;8.43;;;;;;;-5.66;100.00;97017.78;5072106;28;20064;-64
2021/12/08 05:52:15;;;;;;;30.10;11.30;;;;;;;-5.63;100.00;97007.50;5071774;28;20292;-64
2021/12/08 05:54:45;;;;;;;30.73;11.57;;;;;;;-5.66;100.00;97009.25;5071730;28;20287;-65
2021/12/08 05:57:16;;;;;;;27.23;12.00;;;;;;;-5.62;100.00;97008.34;5072043;28;20055;-65
2021/12/08 05:59:45;;;;;;;19.10;8.00;;;;;;;-5.71;100.00;97013.63;5072091;28;20105;-66
2021/12/08 06:02:17;;;;;;;31.60;11.80;;;;;;;-5.80;100.00;97006.91;5071958;28;20071;-66
2021/12/08 06:04:45;;;;;;;29.10;11.73;;;;;;;-5.60;100.00;97012.56;5071561;28;20445;-67
2021/12/08 06:07:15;;;;;;;29.63;11.77;;;;;;;-5.61;100.00;97000.66;5071753;28;20047;-66
2021/12/08 06:09:43;;;;;;;36.20;11.00;;;;;;;-5.56;100.00;97008.28;5071840;28;20806;-67
2021/12/08 06:12:11;;;;;;;31.57;11.73;;;;;;;-5.63;100.00;97002.38;5071702;28;20036;-66
2021/12/08 06:14:39;;;;;;;40.90;14.33;;;;;;;-5.57;100.00;97019.34;5071596;28;20044;-66
2021/12/08 06:17:10;;;;;;;32.27;11.83;;;;;;;-5.69;100.00;97015.28;5072262;28;20858;-67
2021/12/08 06:19:40;;;;;;;31.97;12.90;;;;;;;-5.50;100.00;97018.38;5071645;28;20289;-66
2021/12/08 06:22:09;;;;;;;31.37;13.00;;;;;;;-5.51;100.00;97020.13;5071688;28;20366;-67
2021/12/08 06:24:38;;;;;;;37.80;14.53;;;;;;;-5.56;100.00;97021.06;5071281;28;20294;-66
2021/12/08 06:27:05;;;;;;;30.53;11.77;;;;;;;-5.57;100.00;97017.66;5071488;28;20317;-66
2021/12/08 06:29:33;;;;;;;34.83;14.10;;;;;;;-5.42;100.00;97022.53;5071924;28;20748;-66
2021/12/08 06:32:03;;;;;;;31.67;12.80;;;;;;;-5.45;100.00;97025.13;5071636;28;21045;-66
2021/12/08 06:34:32;;;;;;;31.67;12.17;;;;;;;-5.47;100.00;97016.66;5071000;28;20374;-66
2021/12/08 06:37:02;;;;;;;29.07;12.87;;;;;;;-5.43;100.00;97020.00;5070198;28;20078;-66
2021/12/08 06:39:34;;;;;;;29.57;11.07;;;;;;;-5.37;100.00;97018.19;5071692;28;20139;-65
2021/12/08 06:42:06;;;;;;;39.43;14.27;;;;;;;-5.41;100.00;97024.22;5071281;28;20147;-65
2021/12/08 06:44:39;;;;;;;33.88;12.25;;;;;;;-5.45;100.00;97030.25;5070106;28;20036;-66
2021/12/08 06:47:07;;;;;;;26.97;12.33;;;;;;;-5.48;100.00;97035.41;5070957;28;20573;-66
2021/12/08 06:49:34;;;;;;;34.63;13.03;;;;;;;-5.41;100.00;97029.34;5071377;28;20398;-67
2021/12/08 06:52:05;;;;;;;31.87;11.70;;;;;;;-5.38;100.00;97041.25;5071350;28;20052;-66
2021/12/08 06:54:35;;;;;;;55.60;24.13;;;;;;;-5.32;100.00;97033.47;5070745;28;20116;-66
2021/12/08 06:57:09;;;;;;;31.80;13.10;;;;;;;-5.33;100.00;97032.66;5070888;28;20064;-66
2021/12/08 06:59:51;;;;;;;32.60;15.23;;;;;;;-5.34;100.00;97030.94;5070854;28;20070;-66
2021/12/08 07:02:33;;;;;;;34.07;12.43;;;;;;;-5.21;100.00;97023.91;5068969;28;20052;-66
2021/12/08 07:05:14;;;;;;;24.07;9.57;;;;;;;-5.23;100.00;97021.38;5070182;28;20047;-67
2021/12/08 07:07:44;;;;;;;29.17;12.47;;;;;;;-5.23;100.00;97020.53;5070411;28;20052;-67
2021/12/08 07:10:19;;;;;;;27.60;13.20;;;;;;;-5.30;100.00;97019.78;5071908;28;20102;-67
2021/12/08 07:12:51;;;;;;;24.60;11.43;;;;;;;-5.22;100.00;97025.63;5070192;28;20040;-68
2021/12/08 07:15:23;;;;;;;28.70;12.53;;;;;;;-5.38;100.00;97036.16;5070409;28;20402;-68
2021/12/08 07:17:54;;;;;;;27.47;11.37;;;;;;;-5.17;100.00;97033.22;5071552;28;20060;-67
2021/12/08 07:20:40;;;;;;;24.87;8.13;;;;;;;-5.19;100.00;97027.31;5070085;28;20079;-67
2021/12/08 07:23:08;;;;;;;26.57;11.40;;;;;;;-5.18;100.00;97027.28;5070339;28;20044;-68
2021/12/08 07:25:35;;;;;;;21.20;8.83;;;;;;;-5.17;100.00;97015.31;5069920;28;20029;-68
2021/12/08 07:28:05;;;;;;;19.43;8.77;;;;;;;-5.16;100.00;97022.97;5070497;28;20098;-67
2021/12/08 07:30:36;;;;;;;24.17;10.47;;;;;;;-5.25;100.00;97025.69;5069008;28;20039;-67
2021/12/08 07:33:04;;;;;;;30.87;12.00;;;;;;;-5.26;100.00;97028.28;5070093;28;20086;-67
2021/12/08 07:35:36;;;;;;;32.33;12.27;;;;;;;-5.17;100.00;97016.16;5070157;28;20048;-67
2021/12/08 07:38:05;;;;;;;31.53;11.30;;;;;;;-5.22;100.00;97027.34;5069753;28;20056;-67
2021/12/08 07:40:36;;;;;;;33.00;11.37;;;;;;;-5.20;100.00;97031.56;5069877;28;20405;-68
2021/12/08 07:43:10;;;;;;;24.47;10.93;;;;;;;-5.17;100.00;97034.09;5070030;28;20040;-68
2021/12/08 07:45:43;;;;;;;28.90;12.63;;;;;;;-5.23;100.00;97036.72;5069888;28;20060;-68
2021/12/08 07:48:15;;;;;;;38.53;13.98;;;;;;;-5.23;100.00;97023.94;5070752;28;20098;-67
2021/12/08 07:50:49;;;;;;;32.20;12.57;;;;;;;-5.22;100.00;97019.66;5069771;28;20139;-67
2021/12/08 07:53:18;;;;;;;34.97;11.63;;;;;;;-5.20;100.00;97013.66;5069724;28;20044;-67
2021/12/08 07:55:48;;;;;;;31.53;11.50;;;;;;;-5.30;100.00;97018.94;5070158;28;20139;-67
2021/12/08 07:58:19;;;;;;;25.33;11.20;;;;;;;-5.30;100.00;97022.34;5069447;28;20072;-68
2021/12/08 08:00:50;;;;;;;19.50;9.30;;;;;;;-5.31;100.00;97007.00;5069820;28;20390;-67
2021/12/08 08:03:18;;;;;;;26.27;11.43;;;;;;;-5.27;100.00;96999.25;5070276;28;20055;-66
2021/12/08 08:05:48;;;;;;;31.07;11.23;;;;;;;-5.28;100.00;97010.38;5071519;28;20467;-68
2021/12/08 08:08:18;;;;;;;31.20;13.63;;;;;;;-5.26;100.00;97013.72;5069376;28;20105;-68
2021/12/08 08:10:48;;;;;;;31.07;12.63;;;;;;;-5.12;100.00;96995.59;5069911;28;20044;-71
2021/12/08 08:13:21;;;;;;;35.00;15.17;;;;;;;-5.20;100.00;96998.28;5069304;28;20181;-68
2021/12/08 08:15:53;;;;;;;24.60;10.73;;;;;;;-5.13;100.00;96992.19;5068992;28;20040;-68
2021/12/08 08:18:26;;;;;;;27.37;11.20;;;;;;;-5.22;100.00;96996.63;5072416;28;20047;-69
2021/12/08 08:20:57;;;;;;;40.47;13.33;;;;;;;-5.31;100.00;97005.28;5071951;28;20436;-70
2021/12/08 08:23:40;;;;;;;29.03;11.77;;;;;;;-5.21;100.00;97004.28;5088612;28;20389;-68
2021/12/08 08:26:10;;;;;;;30.43;11.60;;;;;;;-5.13;100.00;97002.44;5088563;28;20056;-68
2021/12/08 08:28:38;;;;;;;22.43;9.60;;;;;;;-4.96;100.00;97004.72;5088593;28;20059;-69
2021/12/08 08:31:09;;;;;;;23.87;9.77;;;;;;;-4.84;100.00;97004.50;5088778;28;20119;-68
2021/12/08 08:33:38;;;;;;;23.77;9.83;;;;;;;-5.05;100.00;96993.78;5087298;28;20041;-68
2021/12/08 08:36:09;;;;;;;20.20;8.77;;;;;;;-4.95;100.00;97000.44;5087290;28;20485;-68
2021/12/08 08:38:42;;;;;;;24.83;9.70;;;;;;;-4.92;100.00;97001.22;5087224;28;20086;-68
2021/12/08 08:41:15;;;;;;;24.60;9.13;;;;;;;-5.06;100.00;96997.22;5088846;28;20070;-66
2021/12/08 08:43:42;;;;;;;20.75;8.55;;;;;;;-4.81;100.00;96999.31;5087730;28;20505;-66
2021/12/08 08:46:16;;;;;;;22.17;8.90;;;;;;;-4.85;100.00;96994.25;5085238;28;20101;-66
2021/12/08 08:48:46;;;;;;;28.50;11.55;;;;;;;-4.99;100.00;96991.09;5084076;28;20041;-66
2021/12/08 08:51:18;;;;;;;18.17;6.93;;;;;;;-4.93;100.00;96985.88;5085648;28;20090;-66
2021/12/08 08:53:48;;;;;;;21.33;8.83;;;;;;;-4.98;100.00;96982.56;5085383;28;20106;-66
2021/12/08 08:56:20;;;;;;;26.10;10.53;;;;;;;-4.90;100.00;96996.06;5083422;28;20419;-66
2021/12/08 08:58:51;;;;;;;21.08;9.48;;;;;;;-4.98;100.00;96985.13;5086206;28;20428;-66
2021/12/08 09:01:22;;;;;;;23.43;10.23;;;;;;;-4.81;100.00;96977.97;5085360;28;20052;-66
2021/12/08 09:03:52;;;;;;;22.10;9.23;;;;;;;-4.91;100.00;96968.78;5086083;28;20067;-67
2021/12/08 09:06:25;;;;;;;20.27;9.87;;;;;;;-4.87;100.00;96967.84;5083847;28;20142;-66
2021/12/08 09:08:52;;;;;;;22.15;10.80;;;;;;;-4.81;100.00;96965.16;5085169;28;20093;-66
2021/12/08 09:11:24;;;;;;;23.73;10.50;;;;;;;-4.81;100.00;96953.19;5085517;28;20044;-66
2021/12/08 09:13:59;;;;;;;23.80;9.30;;;;;;;-4.76;100.00;96955.69;5084913;28;20090;-66
2021/12/08 09:16:30;;;;;;;18.93;7.07;;;;;;;-4.71;100.00;96951.31;5085604;28;20044;-65
2021/12/08 09:19:04;;;;;;;29.20;11.53;;;;;;;-4.70;100.00;96947.84;5085322;28;20049;-66
2021/12/08 09:21:35;;;;;;;22.45;8.80;;;;;;;-4.75;100.00;96945.41;5084453;28;20166;-67
2021/12/08 09:24:08;;;;;;;14.93;7.57;;;;;;;-4.70;100.00;96946.16;5085599;28;20036;-66
2021/12/08 09:26:48;;;;;;;26.92;8.65;;;;;;;-4.75;100.00;96944.56;5085323;28;20055;-67
2021/12/08 09:29:18;;;;;;;23.43;9.60;;;;;;;-4.63;100.00;96941.75;5084166;28;20121;-66
2021/12/08 09:31:53;;;;;;;29.30;9.80;;;;;;;-4.49;100.00;96917.53;5083491;28;20044;-67
2021/12/08 09:34:23;;;;;;;18.90;9.03;;;;;;;-4.36;100.00;96925.84;5077823;28;20044;-67
2021/12/08 09:36:53;;;;;;;22.10;9.23;;;;;;;-4.19;100.00;96928.88;5074171;28;20154;-66
2021/12/08 09:39:25;;;;;;;22.00;10.73;;;;;;;-4.38;100.00;96922.44;5073816;28;20098;-66
2021/12/08 09:42:00;;;;;;;21.90;9.03;;;;;;;-4.43;100.00;96924.25;5072743;28;20204;-68
2021/12/08 09:44:31;;;;;;;24.00;9.53;;;;;;;-4.40;100.00;96924.16;5071401;28;20098;-66
2021/12/08 09:46:58;;;;;;;20.07;7.83;;;;;;;-4.46;100.00;96916.63;5072561;28;20050;-66
2021/12/08 09:49:28;;;;;;;22.67;9.40;;;;;;;-4.37;100.00;96921.56;5072729;28;20046;-66
2021/12/08 09:51:58;;;;;;;23.73;9.63;;;;;;;-4.32;100.00;96925.72;5072689;28;20442;-66
2021/12/08 09:54:25;;;;;;;20.60;9.67;;;;;;;-4.26;100.00;96910.19;5073084;28;20489;-68
2021/12/08 09:56:53;;;;;;;26.27;11.03;;;;;;;-4.23;100.00;96912.72;5072201;28;20454;-67
2021/12/08 09:59:23;;;;;;;23.17;9.33;;;;;;;-4.65;100.00;96917.88;5071656;28;20091;-67
2021/12/08 10:01:51;;;;;;;23.37;11.40;;;;;;;-4.71;100.00;96923.13;5072755;28;20040;-66
2021/12/08 10:04:19;;;;;;;23.80;9.77;;;;;;;-4.69;100.00;96917.09;5068254;28;20040;-65
2021/12/08 10:06:49;;;;;;;22.43;9.77;;;;;;;-4.61;100.00;96916.94;5070858;28;20167;-67
2021/12/08 10:09:19;;;;;;;20.07;9.13;;;;;;;-4.59;100.00;96928.84;5070872;28;20045;-65
2021/12/08 10:11:46;;;;;;;21.53;9.27;;;;;;;-4.54;100.00;96931.31;5069837;28;20129;-67
2021/12/08 10:14:14;;;;;;;25.37;10.47;;;;;;;-4.31;100.00;96939.38;5070093;28;20469;-66
2021/12/08 10:16:42;;;;;;;20.73;9.33;;;;;;;-4.45;100.00;96931.13;5073975;28;20044;-66
2021/12/08 10:19:09;;;;;;;21.70;9.30;;;;;;;-4.42;100.00;96925.94;5070621;28;20074;-67
2021/12/08 10:21:38;;;;;;;22.37;8.57;;;;;;;-4.47;100.00;96932.91;5077940;28;20056;-68
2021/12/08 10:24:15;;;;;;;25.47;10.47;;;;;;;-4.42;100.00;96926.78;5074383;28;20449;-68
2021/12/08 10:26:44;;;;;;;24.03;10.87;;;;;;;-4.25;100.00;96934.97;5072179;28;20048;-69
2021/12/08 10:29:11;;;;;;;25.07;11.00;;;;;;;-4.33;100.00;96931.72;5073726;28;20032;-68
2021/12/08 10:31:45;;;;;;;25.77;10.03;;;;;;;-4.39;100.00;96925.88;5071484;28;20119;-65
2021/12/08 10:34:22;;;;;;;25.90;10.37;;;;;;;-4.34;100.00;96918.94;5070867;28;20055;-67
2021/12/08 10:36:53;;;;;;;27.73;12.77;;;;;;;-4.25;100.00;96923.88;5070966;28;20043;-66
2021/12/08 10:39:33;;;;;;;27.10;10.87;;;;;;;-4.33;100.00;96918.03;5071000;28;20694;-67
2021/12/08 10:42:07;;;;;;;24.70;10.83;;;;;;;-4.41;100.00;96915.66;5070323;28;20110;-67
2021/12/08 10:44:43;;;;;;;25.97;11.63;;;;;;;-4.31;100.00;96912.03;5067987;28;20070;-68
2021/12/08 10:47:13;;;;;;;21.77;9.97;;;;;;;-4.48;100.00;96911.53;5070532;28;20041;-67
2021/12/08 10:55:23;;;;;;;25.10;10.67;;;;;;;-4.68;100.00;96918.78;5069779;28;20436;-66
2021/12/08 10:57:55;;;;;;;31.27;13.10;;;;;;;-4.64;100.00;96920.41;5070775;28;20040;-67
2021/12/08 11:00:26;;;;;;;30.00;11.97;;;;;;;-4.53;100.00;96917.63;5069764;28;20126;-66
2021/12/08 11:02:56;;;;;;;28.87;11.20;;;;;;;-4.63;100.00;96922.09;5071019;28;20079;-65
2021/12/08 11:05:38;;;;;;;29.00;12.30;;;;;;;-4.66;100.00;96924.72;5070544;28;20056;-65
2021/12/08 11:08:12;;;;;;;26.80;11.43;;;;;;;-4.64;100.00;96925.53;5067518;28;20113;-66
2021/12/08 11:10:40;;;;;;;;;;;;;;;-4.56;100.00;96927.94;5070565;28;20501;-67
2021/12/08 11:13:08;;;;;;;32.83;15.77;;;;;;;-4.55;100.00;96916.81;5070194;28;19920;-67
2021/12/08 11:15:38;;;;;;;39.03;17.30;;;;;;;-4.50;100.00;96920.13;5071226;28;20080;-66
2021/12/08 11:18:19;;;;;;;32.87;13.17;;;;;;;-4.69;100.00;96914.53;5071298;28;20044;-66
2021/12/08 11:20:52;;;;;;;28.97;14.00;;;;;;;-4.67;100.00;96917.91;5069199;28;20079;-67
2021/12/08 11:23:40;;;;;;;29.90;12.63;;;;;;;-4.61;100.00;96919.50;5070298;28;20614;-69
2021/12/08 11:26:12;;;;;;;30.10;13.20;;;;;;;-4.61;100.00;96909.25;5070909;28;20039;-63
2021/12/08 11:28:40;;;;;;;22.40;9.40;;;;;;;-4.79;100.00;96920.72;5069106;28;20041;-66
2021/12/08 11:31:10;;;;;;;22.43;10.00;;;;;;;-4.79;100.00;96918.16;5068229;28;20048;-64
2021/12/08 11:33:42;;;;;;;26.13;10.50;;;;;;;-4.78;100.00;96913.84;5068879;28;20497;-66
2021/12/08 11:36:17;;;;;;;30.93;12.63;;;;;;;-4.74;100.00;96918.91;5069347;28;20760;-68
2021/12/08 11:38:47;;;;;;;34.90;11.50;;;;;;;-4.77;100.00;96918.09;5068060;28;20074;-72
2021/12/08 11:41:26;;;;;;;24.10;8.40;;;;;;;-4.98;100.00;96924.47;5070527;28;20119;-66
2021/12/08 11:43:55;;;;;;;28.10;11.80;;;;;;;-5.01;100.00;96914.31;5070911;28;20044;-63
2021/12/08 11:46:23;;;;;;;29.87;11.93;;;;;;;-4.98;100.00;96914.22;5069494;28;20040;-62
2021/12/08 11:49:01;;;;;;;39.57;14.83;;;;;;;-4.93;100.00;96919.28;5069368;28;20385;-65
2021/12/08 11:51:28;;;;;;;23.47;8.60;;;;;;;-5.01;100.00;96908.34;5069070;28;20401;-62
2021/12/08 11:53:55;;;;;;;28.13;10.53;;;;;;;-5.02;100.00;96916.91;5070458;28;20037;-63
2021/12/08 11:56:40;;;;;;;28.70;11.67;;;;;;;-4.95;100.00;96926.16;5070954;28;20098;-64
2021/12/08 11:59:10;;;;;;;34.10;12.63;;;;;;;-4.83;100.00;96918.25;5071471;28;20028;-63
2021/12/08 12:01:38;;;;;;;45.13;15.30;;;;;;;-4.78;100.00;96914.72;5071275;28;20044;-63